Latest Weather Observations for Banana Bank

IDQ60801

Issued at 2:35 am EST Friday 25 July 2014 (issued every 30 minutes, with the page automatically refreshed every 10 minutes)

About weather observations | Map of weather stations | Latest weather observations for QLD | Other Formats
Station Details ID: 040925 Name: BANANA BANK NORTH BEACON Lat: -27.53 Lon: 153.33 Height: 7.0 m
Data from the previous 72 hours. | See also: Recent months for locations in Queensland
Date/Time
EST
Temp
°C
App
Temp
°C
Dew
Point
Rel
Hum
%
Delta-T
°C
Wind Press
QNH
hPa
Press
MSL
hPa
Rain
since 9 am
mm
Dir
 
Spd
km/h
Gust
km/h
Spd
kts
Gust
kts
25/02:30am - - - - - S 7 7 4 4 - - -
25/02:00am - - - - - S 4 6 2 3 - - -
25/01:30am - - - - - SSW 7 9 4 5 - - -
25/01:00am - - - - - SSW 7 9 4 5 - - -
25/12:30am - - - - - SSW 7 9 4 5 - - -
25/12:00am - - - - - SSW 7 9 4 5 - - -
 
Date/Time
EST
Temp
°C
App
Temp
°C
Dew
Point
Rel
Hum
%
Delta-T
°C
Wind Press
QNH
hPa
Press
MSL
hPa
Rain
since 9 am
mm
Dir
 
Spd
km/h
Gust
km/h
Spd
kts
Gust
kts
24/11:30pm - - - - - SSW 7 7 4 4 - - -
24/11:00pm - - - - - CALM 0 4 0 2 - - -
24/10:30pm - - - - - WSW 4 6 2 3 - - -
24/10:00pm - - - - - SSE 6 7 3 4 - - -
24/09:30pm - - - - - S 4 6 2 3 - - -
24/09:00pm - - - - - S 6 6 3 3 - - -
24/08:30pm - - - - - CALM 0 0 0 0 - - -
24/08:00pm - - - - - SSE 4 4 2 2 - - -
24/07:30pm - - - - - SE 6 7 3 4 - - -
24/07:00pm - - - - - ESE 4 6 2 3 - - -
24/06:30pm - - - - - ENE 4 6 2 3 - - -
24/06:00pm - - - - - E 7 7 4 4 - - -
24/05:30pm - - - - - E 9 11 5 6 - - -
24/05:00pm - - - - - E 11 13 6 7 - - -
24/04:30pm - - - - - E 11 13 6 7 - - -
24/04:00pm - - - - - E 13 13 7 7 - - -
24/03:30pm - - - - - E 11 13 6 7 - - -
24/03:00pm - - - - - E 4 6 2 3 - - -
24/02:30pm - - - - - ENE 6 7 3 4 - - -
24/02:00pm - - - - - ENE 11 13 6 7 - - -
24/01:30pm - - - - - E 6 7 3 4 - - -
24/01:00pm - - - - - SE 9 9 5 5 - - -
24/12:30pm - - - - - SSE 11 11 6 6 - - -
24/12:00pm - - - - - S 9 11 5 6 - - -
24/11:30am - - - - - SSW 9 11 5 6 - - -
24/11:00am - - - - - SSW 9 11 5 6 - - -
24/10:30am - - - - - SSW 15 15 8 8 - - -
24/10:00am - - - - - S 7 9 4 5 - - -
24/09:30am - - - - - SSE 6 7 3 4 - - -
24/09:00am - - - - - SSE 7 7 4 4 - - -
24/08:30am - - - - - SSE 6 7 3 4 - - -
24/08:00am - - - - - SSE 6 7 3 4 - - -
24/07:30am - - - - - SSE 4 6 2 3 - - -
24/07:00am - - - - - S 7 7 4 4 - - -
24/06:30am - - - - - SSW 7 9 4 5 - - -
24/06:00am - - - - - SSW 6 7 3 4 - - -
24/05:30am - - - - - SSW 6 7 3 4 - - -
24/05:00am - - - - - SSW 9 13 5 7 - - -
24/04:30am - - - - - S 9 11 5 6 - - -
24/04:00am - - - - - S 6 6 3 3 - - -
24/03:30am - - - - - SW 7 7 4 4 - - -
24/03:00am - - - - - SW 6 7 3 4 - - -
24/02:30am - - - - - S 6 7 3 4 - - -
24/02:00am - - - - - S 9 11 5 6 - - -
24/01:30am - - - - - SSE 9 13 5 7 - - -
24/01:00am - - - - - S 11 17 6 9 - - -
24/12:30am - - - - - S 13 15 7 8 - - -
24/12:00am - - - - - S 15 19 8 10 - - -
 
Date/Time
EST
Temp
°C
App
Temp
°C
Dew
Point
Rel
Hum
%
Delta-T
°C
Wind Press
QNH
hPa
Press
MSL
hPa
Rain
since 9 am
mm
Dir
 
Spd
km/h
Gust
km/h
Spd
kts
Gust
kts
23/11:30pm - - - - - S 17 19 9 10 - - -
23/11:00pm - - - - - S 17 19 9 10 - - -
23/10:30pm - - - - - SSW 15 17 8 9 - - -
23/10:00pm - - - - - S 15 17 8 9 - - -
23/09:30pm - - - - - SSW 13 17 7 9 - - -
23/09:00pm - - - - - SSE 13 19 7 10 - - -
23/08:30pm - - - - - SSE 13 17 7 9 - - -
23/08:00pm - - - - - SSE 15 19 8 10 - - -
23/07:30pm - - - - - SE 17 19 9 10 - - -
23/07:00pm - - - - - SE 15 19 8 10 - - -
23/06:30pm - - - - - SSE 11 13 6 7 - - -
23/06:00pm - - - - - SE 9 11 5 6 - - -
23/05:30pm - - - - - SE 15 17 8 9 - - -
23/05:00pm - - - - - SE 17 20 9 11 - - -
23/04:30pm - - - - - SE 15 19 8 10 - - -
23/04:00pm - - - - - SE 15 19 8 10 - - -
23/03:30pm - - - - - ESE 13 17 7 9 - - -
23/03:00pm - - - - - SE 17 20 9 11 - - -
23/02:30pm - - - - - SE 15 19 8 10 - - -
23/02:00pm - - - - - SE 17 19 9 10 - - -
23/01:30pm - - - - - SE 22 26 12 14 - - -
23/01:00pm - - - - - SE 15 17 8 9 - - -
23/12:30pm - - - - - SSE 11 13 6 7 - - -
23/12:00pm - - - - - S 9 11 5 6 - - -
23/11:30am - - - - - S 15 19 8 10 - - -
23/11:00am - - - - - SE 2 4 1 2 - - -
23/10:30am - - - - - SE 7 9 4 5 - - -
23/10:00am - - - - - S 7 9 4 5 - - -
23/09:30am - - - - - S 6 7 3 4 - - -
23/09:00am - - - - - S 6 7 3 4 - - -
23/08:30am - - - - - SSW 7 9 4 5 - - -
23/08:00am - - - - - SW 7 9 4 5 - - -
23/07:30am - - - - - SW 11 15 6 8 - - -
23/07:00am - - - - - SW 11 13 6 7 - - -
23/06:30am - - - - - SSW 11 15 6 8 - - -
23/06:00am - - - - - SSW 9 13 5 7 - - -
23/05:30am - - - - - S 7 11 4 6 - - -
23/05:00am - - - - - SSW 9 15 5 8 - - -
23/04:30am - - - - - SSW 7 9 4 5 - - -
23/04:00am - - - - - SW 9 11 5 6 - - -
23/03:30am - - - - - SW 13 15 7 8 - - -
23/03:00am - - - - - SW 9 11 5 6 - - -
23/02:30am - - - - - SW 9 11 5 6 - - -
23/02:00am - - - - - S 11 13 6 7 - - -
23/01:30am - - - - - S 9 11 5 6 - - -
23/01:00am - - - - - SSW 15 17 8 9 - - -
23/12:30am - - - - - SSW 15 19 8 10 - - -
23/12:00am - - - - - SSW 19 20 10 11 - - -
 
Date/Time
EST
Temp
°C
App
Temp
°C
Dew
Point
Rel
Hum
%
Delta-T
°C
Wind Press
QNH
hPa
Press
MSL
hPa
Rain
since 9 am
mm
Dir
 
Spd
km/h
Gust
km/h
Spd
kts
Gust
kts
22/11:30pm - - - - - S 19 20 10 11 - - -
22/11:00pm - - - - - S 17 20 9 11 - - -
22/10:30pm - - - - - S 17 20 9 11 - - -
22/10:00pm - - - - - S 20 26 11 14 - - -
22/09:30pm - - - - - S 15 20 8 11 - - -
22/09:00pm - - - - - S 20 24 11 13 - - -
22/08:30pm - - - - - SSW 19 22 10 12 - - -
22/08:00pm - - - - - S 17 19 9 10 - - -
22/07:30pm - - - - - S 13 15 7 8 - - -
22/07:00pm - - - - - S 11 13 6 7 - - -
22/06:30pm - - - - - S 6 7 3 4 - - -
22/06:00pm - - - - - WNW 6 7 3 4 - - -
22/05:30pm - - - - - WNW 7 11 4 6 - - -
22/05:00pm - - - - - SW 7 9 4 5 - - -
22/04:30pm - - - - - SSE 15 17 8 9 - - -
22/04:00pm - - - - - ESE 7 9 4 5 - - -
22/03:30pm - - - - - NE 7 11 4 6 - - -
22/03:00pm - - - - - E 17 20 9 11 - - -
22/02:35pm - - - - - S 35 56 19 30 - - -
22/02:33pm - - - - - S 43 56 23 30 - - -
22/02:30pm - - - - - SSW 20 30 11 16 - - -
22/02:00pm - - - - - NNE 9 11 5 6 - - -
22/01:30pm - - - - - NE 9 11 5 6 - - -
22/01:00pm - - - - - ENE 6 6 3 3 - - -
22/12:30pm - - - - - ESE 6 7 3 4 - - -
22/12:00pm - - - - - SE 7 9 4 5 - - -
22/11:30am - - - - - SSE 9 9 5 5 - - -
22/11:00am - - - - - SSE 9 9 5 5 - - -
22/10:30am - - - - - SSW 6 7 3 4 - - -
22/10:00am - - - - - CALM 0 0 0 0 - - -
22/09:30am - - - - - S 6 6 3 3 - - -
22/09:00am - - - - - SSE 6 7 3 4 - - -
22/08:30am - - - - - S 6 7 3 4 - - -
22/08:00am - - - - - S 7 7 4 4 - - -
22/07:30am - - - - - S 6 7 3 4 - - -
22/07:00am - - - - - SSW 9 13 5 7 - - -
22/06:30am - - - - - SSW 7 9 4 5 - - -
22/06:00am - - - - - S 6 7 3 4 - - -
22/05:30am - - - - - SSW 6 6 3 3 - - -
22/05:00am - - - - - SSW 9 11 5 6 - - -
22/04:30am - - - - - S 7 7 4 4 - - -
22/04:00am - - - - - SSE 7 7 4 4 - - -
22/03:30am - - - - - SSE 4 6 2 3 - - -
22/03:00am - - - - - SSW 6 7 3 4 - - -

Other Formats:

Comma delimited format used in spreadsheet applications
http://www.bom.gov.au/fwo/IDQ60801/IDQ60801.94591.axf

JavaScript Object Notation format (JSON) in row-major order
http://www.bom.gov.au/fwo/IDQ60801/IDQ60801.94591.json